Time;durP1;ratioP1;P1;durP2;ratioP2;P2;SDS_P1;SDS_P2;PMS_P1;PMS_P2;Temp;Humidity;BMP_temperature;BMP_pressure;BME280_temperature;BME280_humidity;BME280_pressure;Samples;Min_cycle;Max_cycle;Signal;HPM_P1;HPM_P2
2021/09/21 00:01:26;;;;;;;8.65;4.40;;;;;;;;;;5051919;28;20076;-88
2021/09/21 00:03:53;;;;;;;7.65;4.75;;;;;;;;;;5052619;28;20370;-88
2021/09/21 00:06:20;;;;;;;8.43;4.82;;;;;;;;;;5051447;28;20048;-88
2021/09/21 00:08:46;;;;;;;7.78;4.97;;;;;;;;;;5052163;28;20051;-88
2021/09/21 00:11:15;;;;;;;9.13;5.55;;;;;;;;;;5017504;28;20094;-88
2021/09/21 00:13:41;;;;;;;9.55;5.63;;;;;;;;;;5051227;28;20082;-88
2021/09/21 00:16:09;;;;;;;8.98;5.40;;;;;;;;;;5039768;28;20048;-88
2021/09/21 00:18:36;;;;;;;9.02;6.13;;;;;;;;;;5032489;28;20046;-88
2021/09/21 00:21:03;;;;;;;8.73;5.53;;;;;;;;;;5014997;28;20037;-88
2021/09/21 00:23:31;;;;;;;9.82;6.03;;;;;;;;;;5032808;28;20493;-89
2021/09/21 00:25:58;;;;;;;8.90;5.72;;;;;;;;;;5031066;28;20042;-88
2021/09/21 00:28:26;;;;;;;8.25;5.20;;;;;;;;;;5051508;28;20447;-87
2021/09/21 00:30:54;;;;;;;8.68;4.63;;;;;;;;;;5051395;28;20508;-88
2021/09/21 00:33:23;;;;;;;8.02;4.90;;;;;;;;;;5051610;28;20040;-88
2021/09/21 00:35:52;;;;;;;9.23;5.70;;;;;;;;;;5038522;28;20480;-88
2021/09/21 00:38:20;;;;;;;8.68;4.90;;;;;;;;;;5030762;28;20049;-88
2021/09/21 00:40:47;;;;;;;8.70;4.85;;;;;;;;;;5050474;28;20045;-88
2021/09/21 00:43:20;;;;;;;10.82;5.00;;;;;;;;;;5048555;28;20065;-87
2021/09/21 00:45:49;;;;;;;8.27;5.05;;;;;;;;;;5031156;28;20095;-88
2021/09/21 00:48:16;;;;;;;7.35;4.40;;;;;;;;;;5030817;28;20056;-88
2021/09/21 00:50:43;;;;;;;9.05;5.13;;;;;;;;;;5035824;28;20064;-88
2021/09/21 00:53:09;;;;;;;9.23;4.90;;;;;;;;;;5036082;28;20557;-88
2021/09/21 00:55:36;;;;;;;7.22;4.80;;;;;;;;;;5040972;28;20385;-87
2021/09/21 00:58:03;;;;;;;7.43;5.00;;;;;;;;;;5054242;28;20056;-87
2021/09/21 01:00:30;;;;;;;8.10;4.93;;;;;;;;;;5051512;28;20044;-89
2021/09/21 01:02:58;;;;;;;8.55;5.60;;;;;;;;;;5034839;28;20049;-89
2021/09/21 01:05:25;;;;;;;9.10;4.05;;;;;;;;;;5035397;28;20050;-88
2021/09/21 01:07:52;;;;;;;8.65;4.97;;;;;;;;;;5035257;28;20041;-88
2021/09/21 01:10:22;;;;;;;9.57;4.85;;;;;;;;;;5035400;28;20073;-88
2021/09/21 01:12:49;;;;;;;7.90;4.25;;;;;;;;;;5034346;28;20107;-87
2021/09/21 01:15:16;;;;;;;8.90;5.00;;;;;;;;;;5017621;28;20077;-87
2021/09/21 01:17:43;;;;;;;7.65;4.90;;;;;;;;;;5053290;28;20131;-87
2021/09/21 01:20:14;;;;;;;7.95;4.60;;;;;;;;;;5055305;28;20041;-88
2021/09/21 01:22:42;;;;;;;8.95;4.72;;;;;;;;;;5055535;28;20090;-88
2021/09/21 01:25:10;;;;;;;7.32;4.50;;;;;;;;;;5027256;28;20073;-87
2021/09/21 01:27:37;;;;;;;9.68;5.07;;;;;;;;;;5037565;28;20393;-89
2021/09/21 01:30:05;;;;;;;11.35;4.47;;;;;;;;;;5019237;28;20049;-88
2021/09/21 01:32:32;;;;;;;9.18;4.68;;;;;;;;;;5036713;28;20052;-87
2021/09/21 01:35:00;;;;;;;9.07;5.60;;;;;;;;;;5046707;28;20404;-87
2021/09/21 01:37:28;;;;;;;6.45;4.15;;;;;;;;;;5052855;28;20080;-87
2021/09/21 01:39:56;;;;;;;8.35;4.63;;;;;;;;;;5053760;28;20423;-88
2021/09/21 01:42:23;;;;;;;7.97;4.50;;;;;;;;;;5054840;28;20053;-88
2021/09/21 01:44:50;;;;;;;7.65;4.88;;;;;;;;;;5054967;28;20485;-89
2021/09/21 01:47:20;;;;;;;8.27;4.93;;;;;;;;;;5029365;28;20489;-88
2021/09/21 01:49:56;;;;;;;7.88;4.70;;;;;;;;;;5041181;28;20053;-89
2021/09/21 01:52:27;;;;;;;10.15;5.07;;;;;;;;;;5053516;28;20051;-88
2021/09/21 01:55:08;;;;;;;7.50;4.75;;;;;;;;;;5054595;28;20045;-89
2021/09/21 02:00:21;;;;;;;6.97;4.72;;;;;;;;;;5052474;28;20087;-89
2021/09/21 02:02:48;;;;;;;8.77;4.97;;;;;;;;;;5017076;28;20402;-89
2021/09/21 02:05:15;;;;;;;11.15;5.47;;;;;;;;;;5017047;28;20100;-89
2021/09/21 02:07:42;;;;;;;6.93;4.25;;;;;;;;;;5033175;28;20044;-89
2021/09/21 02:10:09;;;;;;;9.32;5.00;;;;;;;;;;5033309;28;20481;-89
2021/09/21 02:12:38;;;;;;;9.57;5.97;;;;;;;;;;5017273;28;20140;-90
2021/09/21 02:15:06;;;;;;;9.90;5.65;;;;;;;;;;5044868;28;20041;-89
2021/09/21 02:17:33;;;;;;;11.07;5.50;;;;;;;;;;5047893;28;20051;-89
2021/09/21 02:20:00;;;;;;;10.40;5.45;;;;;;;;;;5036672;28;20067;-89
2021/09/21 02:22:26;;;;;;;11.77;6.25;;;;;;;;;;5052213;28;20049;-89
2021/09/21 02:24:55;;;;;;;9.48;5.45;;;;;;;;;;5051048;28;20060;-89
2021/09/21 02:27:22;;;;;;;8.35;5.03;;;;;;;;;;5051281;28;20140;-90
2021/09/21 02:29:50;;;;;;;9.18;5.93;;;;;;;;;;5053695;28;20041;-89
2021/09/21 02:32:17;;;;;;;10.50;5.78;;;;;;;;;;5054223;28;20114;-89
2021/09/21 02:34:45;;;;;;;10.70;6.28;;;;;;;;;;5053242;28;20128;-89
2021/09/21 02:37:13;;;;;;;9.27;5.70;;;;;;;;;;5021335;28;20096;-89
2021/09/21 02:39:40;;;;;;;10.30;5.95;;;;;;;;;;5032675;28;20393;-89
2021/09/21 02:42:06;;;;;;;12.15;6.20;;;;;;;;;;5052650;28;20400;-89
2021/09/21 02:44:35;;;;;;;11.60;6.18;;;;;;;;;;5052183;28;20543;-90
2021/09/21 02:47:04;;;;;;;8.57;5.43;;;;;;;;;;5052986;28;20094;-90
2021/09/21 02:49:32;;;;;;;8.45;5.32;;;;;;;;;;5052454;28;20052;-89
2021/09/21 02:51:58;;;;;;;10.65;6.32;;;;;;;;;;5051875;28;20052;-89
2021/09/21 02:54:25;;;;;;;9.38;5.78;;;;;;;;;;5038913;28;20037;-89
2021/09/21 02:56:52;;;;;;;10.23;5.93;;;;;;;;;;5051515;28;20052;-88
2021/09/21 02:59:19;;;;;;;8.75;5.70;;;;;;;;;;5052427;28;20138;-89
2021/09/21 03:01:46;;;;;;;9.00;5.50;;;;;;;;;;5049230;28;20095;-88
2021/09/21 03:04:20;;;;;;;9.90;5.70;;;;;;;;;;5068031;28;20121;-89
2021/09/21 03:06:50;;;;;;;7.38;5.00;;;;;;;;;;5053198;28;20052;-89
2021/09/21 03:09:22;;;;;;;9.95;5.65;;;;;;;;;;5050705;28;20069;-89
2021/09/21 03:11:53;;;;;;;9.48;5.88;;;;;;;;;;5032883;28;20381;-88
2021/09/21 03:17:26;;;;;;;9.00;4.97;;;;;;;;;;5032679;28;20551;-88
2021/09/21 03:19:59;;;;;;;10.60;5.85;;;;;;;;;;5018308;28;20045;-89
2021/09/21 03:22:26;;;;;;;9.57;5.32;;;;;;;;;;5033147;28;20046;-89
2021/09/21 03:24:54;;;;;;;9.40;5.90;;;;;;;;;;5040278;28;20051;-88
2021/09/21 03:27:32;;;;;;;10.40;6.25;;;;;;;;;;5041897;28;20045;-88
2021/09/21 03:29:59;;;;;;;9.65;5.00;;;;;;;;;;5040336;28;20611;-89
2021/09/21 03:32:26;;;;;;;10.05;5.70;;;;;;;;;;5050938;28;20481;-89
2021/09/21 03:34:53;;;;;;;8.13;5.63;;;;;;;;;;5035038;28;20071;-89
2021/09/21 03:37:22;;;;;;;8.95;5.88;;;;;;;;;;5049176;28;20048;-89
2021/09/21 03:39:48;;;;;;;8.65;5.13;;;;;;;;;;5050569;28;20053;-89
2021/09/21 03:42:15;;;;;;;12.32;6.22;;;;;;;;;;5045010;28;20037;-89
2021/09/21 03:44:43;;;;;;;10.57;5.57;;;;;;;;;;5032566;28;20049;-89
2021/09/21 03:47:11;;;;;;;10.35;5.95;;;;;;;;;;5030660;28;20128;-89
2021/09/21 03:49:37;;;;;;;11.43;6.75;;;;;;;;;;5039096;28;20044;-89
2021/09/21 03:52:05;;;;;;;14.55;6.47;;;;;;;;;;5051787;28;20044;-88
2021/09/21 03:54:34;;;;;;;8.75;5.70;;;;;;;;;;5050720;28;20503;-88
2021/09/21 03:57:01;;;;;;;9.63;5.70;;;;;;;;;;5051474;28;20079;-89
2021/09/21 03:59:28;;;;;;;12.07;6.57;;;;;;;;;;5049235;28;20721;-88
2021/09/21 04:01:55;;;;;;;11.18;5.95;;;;;;;;;;5048757;28;20397;-90
2021/09/21 04:04:22;;;;;;;10.10;6.13;;;;;;;;;;5047510;28;20037;-90
2021/09/21 04:06:49;;;;;;;10.05;5.53;;;;;;;;;;5043531;28;20049;-90
2021/09/21 04:09:16;;;;;;;9.50;6.10;;;;;;;;;;5049808;28;20037;-92
2021/09/21 04:11:45;;;;;;;11.55;5.93;;;;;;;;;;5042440;28;20041;-91
2021/09/21 04:14:14;;;;;;;12.68;6.30;;;;;;;;;;5044529;28;20051;-90
2021/09/21 04:16:40;;;;;;;9.10;5.50;;;;;;;;;;5034355;28;20371;-89
2021/09/21 04:19:09;;;;;;;9.15;5.85;;;;;;;;;;5033679;28;20390;-89
2021/09/21 04:21:35;;;;;;;9.00;5.68;;;;;;;;;;5038058;28;20048;-90
2021/09/21 04:24:06;;;;;;;9.10;5.97;;;;;;;;;;5018346;28;20053;-90
2021/09/21 04:26:33;;;;;;;10.80;6.38;;;;;;;;;;5040087;28;20067;-90
2021/09/21 04:29:04;;;;;;;9.05;5.88;;;;;;;;;;5045318;28;20077;-89
2021/09/21 04:31:33;;;;;;;8.40;5.88;;;;;;;;;;5035601;28;20085;-89
2021/09/21 04:34:05;;;;;;;9.55;5.47;;;;;;;;;;5037340;28;20049;-90
2021/09/21 04:36:32;;;;;;;9.95;5.70;;;;;;;;;;5054535;28;20056;-88
2021/09/21 04:38:59;;;;;;;8.25;5.40;;;;;;;;;;5055852;28;20733;-87
2021/09/21 04:41:27;;;;;;;8.68;5.22;;;;;;;;;;5054799;28;20137;-88
2021/09/21 04:43:54;;;;;;;12.13;5.88;;;;;;;;;;5037697;28;20056;-88
2021/09/21 04:46:22;;;;;;;8.07;5.13;;;;;;;;;;5036559;28;20541;-88
2021/09/21 04:48:49;;;;;;;13.32;6.80;;;;;;;;;;5034872;28;20413;-88
2021/09/21 04:51:16;;;;;;;10.20;5.90;;;;;;;;;;5035789;28;20048;-88
2021/09/21 04:53:43;;;;;;;12.63;5.95;;;;;;;;;;5053854;28;20041;-87
2021/09/21 04:56:10;;;;;;;8.93;5.70;;;;;;;;;;5035275;28;20505;-87
2021/09/21 04:58:37;;;;;;;9.35;5.68;;;;;;;;;;5035485;28;20049;-88
2021/09/21 05:01:04;;;;;;;10.57;5.93;;;;;;;;;;5025288;28;20045;-87
2021/09/21 05:03:33;;;;;;;9.32;5.47;;;;;;;;;;5054205;28;20048;-89
2021/09/21 05:06:06;;;;;;;9.45;5.60;;;;;;;;;;5054247;28;20051;-88
2021/09/21 05:12:04;;;;;;;12.68;5.80;;;;;;;;;;5052191;28;20053;-89
2021/09/21 05:14:32;;;;;;;9.98;5.43;;;;;;;;;;5047997;28;20045;-89
2021/09/21 05:17:01;;;;;;;11.05;5.95;;;;;;;;;;5046586;28;20139;-88
2021/09/21 05:19:29;;;;;;;24.15;6.47;;;;;;;;;;5041016;28;20044;-88
2021/09/21 05:21:56;;;;;;;12.95;7.82;;;;;;;;;;5040357;28;20374;-88
2021/09/21 05:24:23;;;;;;;13.90;8.90;;;;;;;;;;5050759;28;20045;-89
2021/09/21 05:26:50;;;;;;;10.73;7.28;;;;;;;;;;5018156;28;20574;-89
2021/09/21 05:29:17;;;;;;;10.15;6.68;;;;;;;;;;5038593;28;20390;-88
2021/09/21 05:31:44;;;;;;;10.10;6.50;;;;;;;;;;5019374;28;20053;-88
2021/09/21 05:34:11;;;;;;;9.73;5.90;;;;;;;;;;5038829;28;20055;-88
2021/09/21 05:36:39;;;;;;;9.77;6.32;;;;;;;;;;5052137;28;20103;-89
2021/09/21 05:39:06;;;;;;;8.13;5.30;;;;;;;;;;5050308;28;20049;-89
2021/09/21 05:41:33;;;;;;;10.48;5.97;;;;;;;;;;5033151;28;20041;-88
2021/09/21 05:43:59;;;;;;;9.73;5.55;;;;;;;;;;5034197;28;20046;-88
2021/09/21 05:46:26;;;;;;;11.50;6.90;;;;;;;;;;5048897;28;20136;-89
2021/09/21 05:48:59;;;;;;;11.48;5.97;;;;;;;;;;5033313;28;20471;-89
2021/09/21 05:51:25;;;;;;;12.48;6.47;;;;;;;;;;5033765;28;20149;-89
2021/09/21 05:53:54;;;;;;;10.80;6.13;;;;;;;;;;5034872;28;20041;-89
2021/09/21 05:56:21;;;;;;;9.98;6.38;;;;;;;;;;5033845;28;20045;-88
2021/09/21 05:58:48;;;;;;;9.98;6.82;;;;;;;;;;5033862;28;20048;-89
2021/09/21 06:01:15;;;;;;;12.88;6.78;;;;;;;;;;5045126;28;20452;-89
2021/09/21 06:03:42;;;;;;;12.02;6.47;;;;;;;;;;5034597;28;20072;-89
2021/09/21 06:06:09;;;;;;;12.82;6.97;;;;;;;;;;5035802;28;20046;-89
2021/09/21 06:08:35;;;;;;;11.63;6.40;;;;;;;;;;5035195;28;20068;-89
2021/09/21 06:11:04;;;;;;;10.65;7.00;;;;;;;;;;5034286;28;20382;-88
2021/09/21 06:13:31;;;;;;;12.85;7.68;;;;;;;;;;5017346;28;20052;-89
2021/09/21 06:15:57;;;;;;;13.07;6.90;;;;;;;;;;5051218;28;20049;-89
2021/09/21 06:18:24;;;;;;;12.52;6.63;;;;;;;;;;5033063;28;20045;-89
2021/09/21 06:20:51;;;;;;;12.10;7.75;;;;;;;;;;5033091;28;20061;-89
2021/09/21 06:23:19;;;;;;;13.23;8.30;;;;;;;;;;5017219;28;20045;-89
2021/09/21 06:25:46;;;;;;;12.88;7.85;;;;;;;;;;5033309;28;20187;-89
2021/09/21 06:28:14;;;;;;;13.57;8.43;;;;;;;;;;5052538;28;20057;-88
2021/09/21 06:30:41;;;;;;;11.88;7.53;;;;;;;;;;5037003;28;20052;-89
2021/09/21 06:33:08;;;;;;;13.73;8.57;;;;;;;;;;5051149;28;20063;-89
2021/09/21 06:35:35;;;;;;;12.63;7.88;;;;;;;;;;5052512;28;20049;-89
2021/09/21 06:38:01;;;;;;;11.07;7.30;;;;;;;;;;5052681;28;20124;-89
2021/09/21 06:40:34;;;;;;;13.27;8.63;;;;;;;;;;5053529;28;20152;-89
2021/09/21 06:43:03;;;;;;;13.55;8.18;;;;;;;;;;5036197;28;20041;-89
2021/09/21 06:45:31;;;;;;;13.20;8.57;;;;;;;;;;5034663;28;20033;-89
2021/09/21 06:47:58;;;;;;;15.57;9.77;;;;;;;;;;5043681;28;20053;-90
2021/09/21 06:50:25;;;;;;;12.13;8.55;;;;;;;;;;5052511;28;20049;-89
2021/09/21 06:52:51;;;;;;;14.52;9.02;;;;;;;;;;5053153;28;20052;-88
2021/09/21 06:55:19;;;;;;;14.00;9.18;;;;;;;;;;5038320;28;20373;-89
2021/09/21 06:57:49;;;;;;;15.05;9.45;;;;;;;;;;5036365;28;20049;-89
2021/09/21 07:00:17;;;;;;;15.88;9.07;;;;;;;;;;5044724;28;20044;-89
2021/09/21 07:02:47;;;;;;;14.05;8.57;;;;;;;;;;5052862;28;20148;-89
2021/09/21 07:05:17;;;;;;;14.40;9.15;;;;;;;;;;5053939;28;20049;-88
2021/09/21 07:07:45;;;;;;;14.00;9.35;;;;;;;;;;5060408;28;20045;-89
2021/09/21 07:10:13;;;;;;;12.25;8.07;;;;;;;;;;5054430;28;20041;-89
2021/09/21 07:12:40;;;;;;;15.30;8.98;;;;;;;;;;5053173;28;20051;-90
2021/09/21 07:15:07;;;;;;;14.52;9.70;;;;;;;;;;5052530;28;20094;-90
2021/09/21 07:17:34;;;;;;;12.50;8.98;;;;;;;;;;5043263;28;20381;-90
2021/09/21 07:20:03;;;;;;;13.77;9.38;;;;;;;;;;5032007;28;20056;-89
2021/09/21 07:22:31;;;;;;;16.65;10.00;;;;;;;;;;5033210;28;20060;-89
2021/09/21 07:24:58;;;;;;;15.10;9.70;;;;;;;;;;5033521;28;20140;-90
2021/09/21 07:27:25;;;;;;;15.90;9.30;;;;;;;;;;5033028;28;20048;-89
2021/09/21 07:29:52;;;;;;;17.52;9.73;;;;;;;;;;5049390;28;20045;-90
2021/09/21 07:32:18;;;;;;;14.13;9.18;;;;;;;;;;5050818;28;20044;-90
2021/09/21 07:34:45;;;;;;;14.25;10.25;;;;;;;;;;5050664;28;20080;-90
2021/09/21 07:37:14;;;;;;;16.08;9.77;;;;;;;;;;5033815;28;20045;-90
2021/09/21 07:39:41;;;;;;;12.95;9.82;;;;;;;;;;5040402;28;20052;-89
2021/09/21 07:42:08;;;;;;;17.05;11.35;;;;;;;;;;5052614;28;20084;-89
2021/09/21 07:44:35;;;;;;;16.40;10.20;;;;;;;;;;5052146;28;20389;-90
2021/09/21 07:47:01;;;;;;;14.40;10.48;;;;;;;;;;5035512;28;20045;-88
2021/09/21 07:49:28;;;;;;;17.05;10.85;;;;;;;;;;5052834;28;20052;-90
2021/09/21 07:51:55;;;;;;;17.25;10.38;;;;;;;;;;5052483;28;20041;-90
2021/09/21 07:54:24;;;;;;;17.38;11.30;;;;;;;;;;5030220;28;20539;-90
2021/09/21 07:56:51;;;;;;;19.02;11.70;;;;;;;;;;5040498;28;20059;-89
2021/09/21 07:59:18;;;;;;;14.93;11.25;;;;;;;;;;5055102;28;20051;-89
2021/09/21 08:01:45;;;;;;;18.50;11.35;;;;;;;;;;5072776;28;20049;-90
2021/09/21 08:04:12;;;;;;;13.25;10.05;;;;;;;;;;5057028;28;20104;-90
2021/09/21 08:06:42;;;;;;;16.02;11.45;;;;;;;;;;5057574;28;20098;-90
2021/09/21 08:09:09;;;;;;;19.17;12.55;;;;;;;;;;5050281;28;20064;-90
2021/09/21 08:11:37;;;;;;;19.45;11.38;;;;;;;;;;5020828;28;20049;-90
2021/09/21 08:14:09;;;;;;;18.73;12.25;;;;;;;;;;5055434;28;20041;-90
2021/09/21 08:16:37;;;;;;;17.33;11.95;;;;;;;;;;5039328;28;20136;-91
2021/09/21 08:19:04;;;;;;;18.08;12.35;;;;;;;;;;5057148;28;20098;-89
2021/09/21 08:24:43;;;;;;;15.48;11.23;;;;;;;;;;5008111;28;20451;-90
2021/09/21 08:27:53;;;;;;;16.92;11.57;;;;;;;;;;5053845;28;20115;-90
2021/09/21 08:30:22;;;;;;;16.90;11.10;;;;;;;;;;5036815;28;20056;-90
2021/09/21 08:33:45;;;;;;;16.35;11.95;;;;;;;;;;5036702;28;20128;-90
2021/09/21 08:36:36;;;;;;;16.40;11.75;;;;;;;;;;5030851;28;20456;-90
2021/09/21 08:41:52;;;;;;;18.35;11.65;;;;;;;;;;5027684;28;20041;-90
2021/09/21 09:01:41;;;;;;;15.07;11.13;;;;;;;;;;4931156;28;20051;-90
2021/09/21 09:07:58;;;;;;;16.33;11.65;;;;;;;;;;4880333;29;20093;-90
2021/09/21 09:10:41;;;;;;;20.00;11.20;;;;;;;;;;4933935;29;20424;-90
2021/09/21 09:13:19;;;;;;;14.90;11.77;;;;;;;;;;4953211;28;20042;-90
2021/09/21 09:19:12;;;;;;;15.80;11.50;;;;;;;;;;4956397;28;20143;-90
2021/09/21 09:22:09;;;;;;;16.80;11.55;;;;;;;;;;4940078;29;20043;-90
2021/09/21 09:34:15;;;;;;;15.75;11.77;;;;;;;;;;5014034;28;20474;-89
2021/09/21 09:43:18;;;;;;;16.35;10.75;;;;;;;;;;5006825;28;20468;-88
2021/09/21 09:49:13;;;;;;;15.82;10.25;;;;;;;;;;4950023;29;20060;-88
2021/09/21 09:51:53;;;;;;;18.52;11.18;;;;;;;;;;5007237;28;20457;-91
2021/09/21 09:54:29;;;;;;;14.35;9.55;;;;;;;;;;5054580;28;20049;-91
2021/09/21 09:57:28;;;;;;;12.57;8.85;;;;;;;;;;5054356;28;20044;-88
2021/09/21 09:59:55;;;;;;;12.07;9.40;;;;;;;;;;5053789;28;20437;-88
2021/09/21 10:02:23;;;;;;;12.45;9.10;;;;;;;;;;5035048;28;20481;-88
2021/09/21 10:04:51;;;;;;;15.93;11.30;;;;;;;;;;5034420;28;20042;-88
2021/09/21 10:07:19;;;;;;;14.05;10.35;;;;;;;;;;5037213;28;20051;-87
2021/09/21 10:09:47;;;;;;;12.50;8.98;;;;;;;;;;5044386;28;20045;-88
2021/09/21 10:12:14;;;;;;;13.43;8.95;;;;;;;;;;5038162;28;20095;-88
2021/09/21 10:14:42;;;;;;;13.45;9.02;;;;;;;;;;5044376;28;20076;-88
2021/09/21 10:17:09;;;;;;;14.93;9.65;;;;;;;;;;5045173;28;20041;-88
2021/09/21 10:19:40;;;;;;;11.57;9.15;;;;;;;;;;5035611;28;20053;-88
2021/09/21 10:22:08;;;;;;;11.43;8.70;;;;;;;;;;5064305;28;20046;-87
2021/09/21 10:24:39;;;;;;;11.73;8.52;;;;;;;;;;5036231;28;20481;-87
2021/09/21 10:27:08;;;;;;;11.10;9.20;;;;;;;;;;5038437;28;20044;-88
2021/09/21 10:29:35;;;;;;;11.30;8.43;;;;;;;;;;5053593;28;20453;-88
2021/09/21 10:32:02;;;;;;;11.40;8.57;;;;;;;;;;5047555;28;20045;-89
2021/09/21 10:35:04;;;;;;;12.38;8.75;;;;;;;;;;5051494;28;20080;-88
2021/09/21 10:37:50;;;;;;;12.38;9.43;;;;;;;;;;5053604;28;20045;-89
2021/09/21 10:43:28;;;;;;;12.65;9.05;;;;;;;;;;4972383;28;20106;-88
2021/09/21 10:46:14;;;;;;;14.35;9.38;;;;;;;;;;5029893;28;20045;-88
2021/09/21 10:49:08;;;;;;;;;;;;;;;;;;;;;
2021/09/21 10:55:46;;;;;;;11.13;8.52;;;;;;;;;;4860275;29;20059;-88
2021/09/21 10:58:32;;;;;;;10.95;8.00;;;;;;;;;;4949089;29;20606;-89
2021/09/21 11:01:05;;;;;;;;;;;;;;;;;;5012799;28;20079;-89
2021/09/21 11:04:18;;;;;;;10.23;7.40;;;;;;;;;;5033894;28;19917;-89
2021/09/21 11:06:45;;;;;;;9.63;7.72;;;;;;;;;;5017979;28;20064;-88
2021/09/21 11:39:29;;;;;;;9.93;7.10;;;;;;;;;;5007185;28;20396;-88
2021/09/21 11:42:00;;;;;;;11.02;8.40;;;;;;;;;;5034111;28;20060;-88
2021/09/21 11:44:37;;;;;;;10.13;7.90;;;;;;;;;;5038524;28;20033;-88
2021/09/21 11:51:03;;;;;;;11.30;7.88;;;;;;;;;;5038052;28;20063;-88
2021/09/21 11:53:31;;;;;;;11.02;8.15;;;;;;;;;;5053545;28;20047;-88
2021/09/21 12:02:49;;;;;;;12.63;8.18;;;;;;;;;;4953898;29;20170;-88
2021/09/21 12:09:34;;;;;;;;;;;;;;;;;;;;;
2021/09/21 12:12:29;;;;;;;10.88;7.68;;;;;;;;;;5032656;28;20045;-88
2021/09/21 12:24:31;;;;;;;9.65;7.90;;;;;;;;;;5035370;28;20049;-89
2021/09/21 12:27:27;;;;;;;;;;;;;;;;;;;;;
2021/09/21 12:32:43;;;;;;;8.52;7.15;;;;;;;;;;5004881;28;20052;-89
2021/09/21 12:35:12;;;;;;;10.98;7.40;;;;;;;;;;5019311;28;20052;-89
2021/09/21 12:37:47;;;;;;;12.05;7.90;;;;;;;;;;5018563;28;20037;-88
2021/09/21 12:40:15;;;;;;;10.23;6.85;;;;;;;;;;5027143;28;20045;-89
2021/09/21 12:43:06;;;;;;;13.25;7.80;;;;;;;;;;5032872;28;20041;-89
2021/09/21 12:45:48;;;;;;;10.57;6.80;;;;;;;;;;5034957;28;20095;-88
2021/09/21 12:48:16;;;;;;;11.13;6.32;;;;;;;;;;5035028;28;20049;-88
2021/09/21 12:50:53;;;;;;;12.45;7.13;;;;;;;;;;5051589;28;20056;-88
2021/09/21 12:53:28;;;;;;;14.57;7.10;;;;;;;;;;5055693;28;20447;-88
2021/09/21 12:56:06;;;;;;;10.15;6.75;;;;;;;;;;5052936;28;20033;-89
2021/09/21 12:58:36;;;;;;;8.50;6.03;;;;;;;;;;5031453;28;20049;-88
2021/09/21 13:01:07;;;;;;;9.40;6.70;;;;;;;;;;5036308;28;20042;-88
2021/09/21 13:03:39;;;;;;;8.57;6.82;;;;;;;;;;5002386;28;20045;-88
2021/09/21 13:06:09;;;;;;;8.85;6.80;;;;;;;;;;5018459;28;20041;-88
2021/09/21 13:08:38;;;;;;;8.65;6.22;;;;;;;;;;5035914;28;20135;-88
2021/09/21 13:11:05;;;;;;;8.27;6.40;;;;;;;;;;5051833;28;20131;-88
2021/09/21 13:13:34;;;;;;;10.60;6.53;;;;;;;;;;5054652;28;20497;-88
2021/09/21 13:16:07;;;;;;;8.98;6.57;;;;;;;;;;5037678;28;20037;-88
2021/09/21 13:18:38;;;;;;;7.55;6.25;;;;;;;;;;5056116;28;20553;-89
2021/09/21 13:21:04;;;;;;;8.32;5.93;;;;;;;;;;5055757;28;20045;-88
2021/09/21 13:23:31;;;;;;;9.10;7.10;;;;;;;;;;5052886;28;20462;-87
2021/09/21 13:25:59;;;;;;;9.32;6.82;;;;;;;;;;5054006;28;20052;-89
2021/09/21 13:28:26;;;;;;;9.13;6.57;;;;;;;;;;5037545;28;20079;-89
2021/09/21 13:30:55;;;;;;;9.55;6.68;;;;;;;;;;5008589;28;20370;-88
2021/09/21 13:33:22;;;;;;;9.20;6.80;;;;;;;;;;5037827;28;20489;-88
2021/09/21 13:35:52;;;;;;;8.45;6.78;;;;;;;;;;5037906;28;20052;-88
2021/09/21 13:38:22;;;;;;;8.23;6.13;;;;;;;;;;5055889;28;20048;-88
2021/09/21 13:41:14;;;;;;;8.00;6.22;;;;;;;;;;5054671;28;20052;-88
2021/09/21 13:43:42;;;;;;;8.88;6.72;;;;;;;;;;5040229;28;20045;-89
2021/09/21 13:46:10;;;;;;;10.18;6.47;;;;;;;;;;5017334;28;20401;-88
2021/09/21 13:48:37;;;;;;;8.82;6.30;;;;;;;;;;5017371;28;20049;-88
2021/09/21 13:51:04;;;;;;;9.00;6.82;;;;;;;;;;5053747;28;20045;-89
2021/09/21 13:53:31;;;;;;;8.07;5.93;;;;;;;;;;5036545;28;20509;-88
2021/09/21 13:55:58;;;;;;;7.82;5.88;;;;;;;;;;5020009;28;20060;-88
2021/09/21 13:58:25;;;;;;;9.23;6.88;;;;;;;;;;5053381;28;20052;-89
2021/09/21 14:00:52;;;;;;;7.85;5.95;;;;;;;;;;5046975;28;20052;-88
2021/09/21 14:03:20;;;;;;;7.78;6.05;;;;;;;;;;5037070;28;20128;-88
2021/09/21 14:05:47;;;;;;;9.27;6.88;;;;;;;;;;5054554;28;20047;-88
2021/09/21 14:08:14;;;;;;;9.15;6.65;;;;;;;;;;5037087;28;20473;-88
2021/09/21 14:10:41;;;;;;;7.97;5.82;;;;;;;;;;5037073;28;20051;-88
2021/09/21 14:13:08;;;;;;;9.32;6.60;;;;;;;;;;5037079;28;20051;-88
2021/09/21 14:15:35;;;;;;;8.80;6.88;;;;;;;;;;5053948;28;20069;-87
2021/09/21 14:18:02;;;;;;;8.82;6.72;;;;;;;;;;5054529;28;20091;-87
2021/09/21 14:20:30;;;;;;;10.32;7.05;;;;;;;;;;5055274;28;20461;-88
2021/09/21 14:22:57;;;;;;;9.15;6.05;;;;;;;;;;5016466;28;20045;-88
2021/09/21 14:25:26;;;;;;;9.70;7.43;;;;;;;;;;5032971;28;20550;-89
2021/09/21 14:27:55;;;;;;;8.90;7.03;;;;;;;;;;5036898;28;20049;-88
2021/09/21 14:30:24;;;;;;;7.90;6.13;;;;;;;;;;5039037;28;20547;-89
2021/09/21 14:32:52;;;;;;;8.30;5.70;;;;;;;;;;5034259;28;20045;-88
2021/09/21 14:35:21;;;;;;;8.32;6.45;;;;;;;;;;5001199;28;20045;-88
2021/09/21 14:37:51;;;;;;;9.52;6.05;;;;;;;;;;5017283;28;20049;-88
2021/09/21 14:40:18;;;;;;;7.15;5.50;;;;;;;;;;5034233;28;20049;-88
2021/09/21 14:42:46;;;;;;;8.13;6.18;;;;;;;;;;5016832;28;20124;-88
2021/09/21 14:45:14;;;;;;;8.73;6.60;;;;;;;;;;5034837;28;20041;-88
2021/09/21 14:47:42;;;;;;;7.90;6.20;;;;;;;;;;5031249;28;20067;-89
2021/09/21 14:50:12;;;;;;;8.43;6.20;;;;;;;;;;5053569;28;20045;-89
2021/09/21 14:52:43;;;;;;;8.75;6.40;;;;;;;;;;5022498;28;20046;-88
2021/09/21 14:55:12;;;;;;;8.20;5.60;;;;;;;;;;5034058;28;20128;-88
2021/09/21 14:57:40;;;;;;;8.90;6.47;;;;;;;;;;5035012;28;20160;-89
2021/09/21 15:00:10;;;;;;;9.32;6.15;;;;;;;;;;5053158;28;20080;-88
2021/09/21 15:02:37;;;;;;;10.13;6.68;;;;;;;;;;5018539;28;20049;-88
2021/09/21 15:05:05;;;;;;;8.23;6.13;;;;;;;;;;5000013;28;20041;-88
2021/09/21 15:07:32;;;;;;;8.95;6.30;;;;;;;;;;5032926;28;20441;-87
2021/09/21 15:09:59;;;;;;;9.70;6.88;;;;;;;;;;5038419;28;20470;-88
2021/09/21 15:12:27;;;;;;;9.18;6.57;;;;;;;;;;5049963;28;20045;-89
2021/09/21 15:14:54;;;;;;;8.77;7.03;;;;;;;;;;5033580;28;20052;-88
2021/09/21 15:17:21;;;;;;;8.32;6.72;;;;;;;;;;5033368;28;20072;-88
2021/09/21 15:19:47;;;;;;;8.77;6.40;;;;;;;;;;5015630;28;20051;-89
2021/09/21 15:22:14;;;;;;;11.20;6.38;;;;;;;;;;5015814;28;20049;-88
2021/09/21 15:24:41;;;;;;;8.68;6.75;;;;;;;;;;4999875;28;20045;-89
2021/09/21 15:27:08;;;;;;;10.68;7.18;;;;;;;;;;5015207;28;20141;-87
2021/09/21 15:29:37;;;;;;;9.98;6.43;;;;;;;;;;5013826;28;20041;-88
2021/09/21 15:32:05;;;;;;;9.27;6.63;;;;;;;;;;4987429;28;20045;-87
2021/09/21 15:34:32;;;;;;;11.60;7.22;;;;;;;;;;5047863;28;20037;-88
2021/09/21 15:37:00;;;;;;;13.35;6.70;;;;;;;;;;5052100;28;20072;-87
2021/09/21 15:39:30;;;;;;;7.47;5.82;;;;;;;;;;5028986;28;20045;-88
2021/09/21 15:41:57;;;;;;;9.95;6.80;;;;;;;;;;4999023;28;20045;-90
2021/09/21 15:44:28;;;;;;;10.68;7.15;;;;;;;;;;5037956;28;20124;-87
2021/09/21 15:46:57;;;;;;;8.50;6.45;;;;;;;;;;5019266;28;20439;-87
2021/09/21 15:49:25;;;;;;;10.57;7.05;;;;;;;;;;5034238;28;20044;-86
2021/09/21 15:51:53;;;;;;;9.82;6.28;;;;;;;;;;5035647;28;20381;-85
2021/09/21 15:54:20;;;;;;;10.07;7.63;;;;;;;;;;5028486;28;20041;-88
2021/09/21 15:56:47;;;;;;;8.90;6.90;;;;;;;;;;5044471;28;20041;-87
2021/09/21 15:59:17;;;;;;;12.57;7.07;;;;;;;;;;5034529;28;20433;-86
2021/09/21 16:01:44;;;;;;;9.68;7.45;;;;;;;;;;5034910;28;20099;-87
2021/09/21 16:04:12;;;;;;;9.15;6.85;;;;;;;;;;5049460;28;20473;-87
2021/09/21 16:06:39;;;;;;;10.30;7.22;;;;;;;;;;5032693;28;20041;-87
2021/09/21 16:09:10;;;;;;;10.57;6.32;;;;;;;;;;5046843;28;20045;-87
2021/09/21 16:11:37;;;;;;;10.25;6.35;;;;;;;;;;5035409;28;20531;-87
2021/09/21 16:14:04;;;;;;;10.75;7.00;;;;;;;;;;5044273;28;20115;-88
2021/09/21 16:16:31;;;;;;;12.90;7.10;;;;;;;;;;5062052;28;20064;-88
2021/09/21 16:18:58;;;;;;;11.20;8.05;;;;;;;;;;5031017;28;20048;-89
2021/09/21 16:21:29;;;;;;;10.73;7.38;;;;;;;;;;5060399;28;20115;-88
2021/09/21 16:23:56;;;;;;;10.68;7.28;;;;;;;;;;5058201;28;20048;-88
2021/09/21 16:26:23;;;;;;;11.30;7.53;;;;;;;;;;5020903;28;1400962;-87
2021/09/21 16:28:50;;;;;;;9.43;7.15;;;;;;;;;;5046748;28;20124;-86
2021/09/21 16:31:20;;;;;;;10.10;7.05;;;;;;;;;;5063854;28;20079;-87
2021/09/21 16:33:47;;;;;;;9.95;7.20;;;;;;;;;;5056182;28;20539;-88
2021/09/21 16:36:17;;;;;;;10.25;7.35;;;;;;;;;;5052397;28;20057;-88
2021/09/21 16:38:45;;;;;;;11.23;6.93;;;;;;;;;;5056645;28;20126;-90
2021/09/21 16:41:12;;;;;;;11.98;7.40;;;;;;;;;;5003673;28;20519;-86
2021/09/21 16:43:41;;;;;;;9.93;7.60;;;;;;;;;;5019410;28;20095;-87
2021/09/21 16:46:09;;;;;;;10.52;7.95;;;;;;;;;;5049495;28;20491;-87
2021/09/21 16:48:36;;;;;;;11.77;7.55;;;;;;;;;;5049468;28;20094;-87
2021/09/21 16:51:03;;;;;;;11.38;8.13;;;;;;;;;;5038881;28;20045;-89
2021/09/21 16:53:31;;;;;;;10.05;7.22;;;;;;;;;;5053984;28;20428;-90
2021/09/21 16:55:59;;;;;;;12.68;8.00;;;;;;;;;;5031024;28;20052;-89